Time;durP1;ratioP1;P1;durP2;ratioP2;P2;SDS_P1;SDS_P2;PMS_P1;PMS_P2;Temp;Humidity;BMP_temperature;BMP_pressure;BME280_temperature;BME280_humidity;BME280_pressure;Samples;Min_cycle;Max_cycle;Signal;HPM_P1;HPM_P2
2022/09/02 00:01:36;;;;;;;1.90;1.77;;;11.10;99.90;11.20;101130.00;;;;4972644;28;87003;-65
2022/09/02 00:04:12;;;;;;;5.53;1.80;;;11.20;99.90;11.20;101143.00;;;;5004089;27;88949;-64
2022/09/02 00:06:40;;;;;;;1.30;1.17;;;11.20;99.90;11.30;101127.00;;;;4992234;27;87838;-65
2022/09/02 00:09:08;;;;;;;3.10;1.60;;;11.30;99.90;11.30;101130.00;;;;4998294;27;101616;-64
2022/09/02 00:11:37;;;;;;;1.33;1.23;;;11.30;99.90;11.40;101122.00;;;;4998223;27;87750;-65
2022/09/02 00:14:09;;;;;;;2.03;1.67;;;11.40;99.90;11.40;101121.00;;;;4990571;28;88831;-65
2022/09/02 00:16:36;;;;;;;1.40;1.30;;;11.40;99.90;11.50;101115.00;;;;4977863;28;88073;-65
2022/09/02 00:19:04;;;;;;;1.77;1.30;;;11.40;99.90;11.50;101115.00;;;;4984683;28;97478;-65
2022/09/02 00:21:33;;;;;;;2.57;1.40;;;11.50;99.90;11.60;101110.00;;;;4990284;27;92162;-65
2022/09/02 00:24:03;;;;;;;3.13;2.23;;;11.60;99.90;11.60;101122.00;;;;4980830;28;88077;-66
2022/09/02 00:26:29;;;;;;;1.53;1.33;;;11.60;99.90;11.60;101120.00;;;;4984188;28;86911;-64
2022/09/02 00:28:55;;;;;;;2.63;1.33;;;11.60;99.90;11.70;101123.00;;;;4986219;28;111674;-65
2022/09/02 00:31:20;;;;;;;2.73;2.00;;;11.70;99.90;11.70;101117.00;;;;4973396;28;108726;-65
2022/09/02 00:33:47;;;;;;;1.53;1.37;;;11.70;99.90;11.70;101114.00;;;;4984049;28;110259;-65
2022/09/02 00:36:12;;;;;;;1.20;1.10;;;11.70;99.90;11.70;101117.00;;;;4991467;28;88577;-65
2022/09/02 00:38:39;;;;;;;1.50;1.33;;;11.70;99.90;11.70;101107.00;;;;4974156;28;110751;-65
2022/09/02 00:41:08;;;;;;;2.93;1.70;;;11.70;99.90;11.70;101113.00;;;;4975028;28;110222;-65
2022/09/02 00:43:47;;;;;;;5.23;1.13;;;11.70;99.90;11.70;101106.00;;;;4986704;28;111235;-65
2022/09/02 00:46:16;;;;;;;2.83;1.70;;;11.70;99.90;11.70;101100.00;;;;4976081;28;93277;-65
2022/09/02 00:48:48;;;;;;;3.17;1.27;;;11.70;99.90;11.70;101102.00;;;;4984954;28;87668;-65
2022/09/02 00:51:15;;;;;;;2.00;1.77;;;11.70;99.90;11.60;101111.00;;;;4989796;28;100555;-65
2022/09/02 00:53:43;;;;;;;1.70;1.60;;;11.70;99.90;11.60;101112.00;;;;4979656;28;88904;-64
2022/09/02 00:56:18;;;;;;;3.10;1.40;;;11.60;99.90;11.50;101096.00;;;;4983990;28;88066;-64
2022/09/02 00:58:45;;;;;;;2.83;1.40;;;11.60;99.90;11.50;101111.00;;;;5000006;27;88777;-65
2022/09/02 01:01:11;;;;;;;2.03;1.13;;;11.50;99.90;11.40;101103.00;;;;4965183;28;98179;-65
2022/09/02 01:03:39;;;;;;;2.43;1.57;;;11.50;99.90;11.40;101111.00;;;;4975948;28;87936;-65
2022/09/02 01:06:06;;;;;;;1.40;1.30;;;11.40;99.90;11.30;101114.00;;;;5001384;27;88851;-65
2022/09/02 01:08:34;;;;;;;4.07;1.60;;;11.30;99.90;11.30;101118.00;;;;4982009;28;88364;-66
2022/09/02 01:11:05;;;;;;;1.77;1.40;;;11.30;99.90;11.20;101116.00;;;;4987711;28;87816;-65
2022/09/02 01:13:36;;;;;;;2.97;1.60;;;11.30;99.90;11.20;101117.00;;;;4992325;28;89161;-65
2022/09/02 01:16:23;;;;;;;1.73;1.40;;;11.20;99.90;11.10;101105.00;;;;4979554;28;89241;-65
2022/09/02 01:18:51;;;;;;;5.03;1.30;;;11.20;99.90;11.10;101103.00;;;;4990028;28;87699;-65
2022/09/02 01:21:17;;;;;;;1.97;1.37;;;11.10;99.90;11.00;101106.00;;;;4987327;28;87887;-65
2022/09/02 01:23:46;;;;;;;2.03;1.67;;;11.10;99.90;11.00;101110.00;;;;4994585;27;89383;-65
2022/09/02 01:26:12;;;;;;;1.60;1.50;;;11.00;99.90;10.90;101109.00;;;;4990964;27;88687;-64
2022/09/02 01:28:38;;;;;;;1.87;1.67;;;11.00;99.90;10.80;101106.00;;;;4999271;27;100432;-65
2022/09/02 01:31:04;;;;;;;1.03;0.90;;;10.90;99.90;10.80;101115.00;;;;4997612;27;96999;-65
2022/09/02 01:33:29;;;;;;;1.37;1.20;;;10.80;99.90;10.70;101112.00;;;;4987002;28;92708;-64
2022/09/02 01:35:55;;;;;;;1.43;1.07;;;10.80;99.90;10.70;101113.00;;;;4988237;28;92567;-65
2022/09/02 01:38:24;;;;;;;0.93;0.93;;;10.70;99.90;10.60;101102.00;;;;4978166;28;90445;-64
2022/09/02 01:40:51;;;;;;;5.43;1.50;;;10.80;99.90;10.60;101105.00;;;;4983592;28;86887;-64
2022/09/02 01:43:22;;;;;;;1.40;1.30;;;10.60;99.90;10.50;101108.00;;;;4991081;28;88777;-64
2022/09/02 01:45:53;;;;;;;1.90;1.50;;;10.60;99.90;10.50;101103.00;;;;4967672;28;88399;-64
2022/09/02 01:48:19;;;;;;;1.93;1.33;;;10.50;99.90;10.40;101107.00;;;;4980529;28;105332;-64
2022/09/02 01:50:56;;;;;;;1.67;1.57;;;10.50;99.90;10.40;101104.00;;;;4988478;28;109876;-65
2022/09/02 01:53:22;;;;;;;1.03;0.90;;;10.50;99.90;10.40;101099.00;;;;4976277;28;108693;-64
2022/09/02 01:55:48;;;;;;;1.37;1.27;;;10.40;99.90;10.30;101101.00;;;;4985512;28;88779;-65
2022/09/02 01:58:14;;;;;;;3.27;1.57;;;10.40;99.90;10.30;101088.00;;;;4990766;28;87836;-64
2022/09/02 02:00:40;;;;;;;1.30;1.20;;;10.30;99.90;10.30;101093.00;;;;4977418;28;88099;-65
2022/09/02 02:03:06;;;;;;;2.00;1.53;;;10.30;99.90;10.30;101100.00;;;;4980279;28;91095;-65
2022/09/02 02:05:32;;;;;;;1.40;1.10;;;10.30;99.90;10.20;101091.00;;;;4990451;28;113460;-65
2022/09/02 02:07:58;;;;;;;1.13;1.03;;;10.30;99.90;10.20;101086.00;;;;4976587;28;87837;-65
2022/09/02 02:10:24;;;;;;;1.20;1.10;;;10.30;99.90;10.20;101080.00;;;;4982838;28;87752;-64
2022/09/02 02:12:50;;;;;;;1.07;1.07;;;10.20;99.90;10.20;101080.00;;;;4990828;28;89289;-65
2022/09/02 02:15:18;;;;;;;1.47;1.37;;;10.20;99.90;10.20;101078.00;;;;4979404;28;89609;-64
2022/09/02 02:17:44;;;;;;;2.00;1.40;;;10.30;99.90;10.20;101070.00;;;;4986470;28;87790;-65
2022/09/02 02:20:13;;;;;;;1.30;1.20;;;10.20;99.90;10.20;101071.00;;;;4991292;28;88069;-64
2022/09/02 02:22:40;;;;;;;1.33;1.10;;;10.30;99.90;10.20;101060.00;;;;4974191;28;87931;-64
2022/09/02 02:25:07;;;;;;;1.87;1.13;;;10.20;99.90;10.20;101063.00;;;;4979724;28;88303;-64
2022/09/02 02:27:33;;;;;;;2.23;1.60;;;10.30;99.90;10.20;101058.00;;;;4978939;28;104311;-64
2022/09/02 02:29:59;;;;;;;1.33;1.20;;;10.30;99.90;10.20;101070.00;;;;4978433;28;107926;-65
2022/09/02 02:32:25;;;;;;;1.73;1.10;;;10.20;99.90;10.20;101064.00;;;;4986821;28;87763;-64
2022/09/02 02:34:53;;;;;;;1.53;1.43;;;10.20;99.90;10.20;101062.00;;;;4990990;28;87993;-64
2022/09/02 02:37:19;;;;;;;3.63;1.47;;;10.20;99.90;10.10;101065.00;;;;4975149;28;88965;-65
2022/09/02 02:39:45;;;;;;;1.90;1.50;;;10.20;99.90;10.10;101068.00;;;;4976322;28;98134;-64
2022/09/02 02:42:12;;;;;;;1.23;1.13;;;10.20;99.90;10.10;101074.00;;;;4992976;28;89149;-65
2022/09/02 02:44:39;;;;;;;1.03;0.90;;;10.20;99.90;10.00;101066.00;;;;4980852;28;88705;-64
2022/09/02 02:47:06;;;;;;;0.90;0.90;;;10.10;99.90;10.00;101064.00;;;;4985379;28;87981;-64
2022/09/02 02:49:37;;;;;;;1.57;1.30;;;10.20;99.90;10.00;101065.00;;;;4992376;28;87752;-64
2022/09/02 02:52:03;;;;;;;1.70;1.60;;;10.00;99.90;9.90;101065.00;;;;4978459;28;88682;-64
2022/09/02 02:54:29;;;;;;;1.60;1.50;;;10.00;99.90;9.90;101063.00;;;;4987113;28;116933;-65
2022/09/02 02:56:54;;;;;;;1.40;1.10;;;10.00;99.90;9.90;101064.00;;;;4991541;28;109069;-64
2022/09/02 02:59:20;;;;;;;1.53;1.23;;;9.90;99.90;9.90;101064.00;;;;4976664;28;108481;-64
2022/09/02 03:01:46;;;;;;;2.47;1.67;;;9.90;99.90;9.90;101070.00;;;;4986848;28;88968;-64
2022/09/02 03:04:12;;;;;;;2.00;1.03;;;9.90;99.90;9.80;101058.00;;;;5003930;27;89335;-64
2022/09/02 03:06:37;;;;;;;2.77;1.17;;;9.90;99.90;9.80;101064.00;;;;4998716;27;109882;-64
2022/09/02 03:09:04;;;;;;;1.43;1.10;;;9.90;99.90;9.80;101061.00;;;;5007170;27;87807;-63
2022/09/02 03:11:30;;;;;;;0.97;0.93;;;9.80;99.90;9.80;101059.00;;;;5002788;27;117150;-64
2022/09/02 03:13:56;;;;;;;1.57;1.47;;;9.80;99.90;9.70;101062.00;;;;4974726;28;117633;-64
2022/09/02 03:16:22;;;;;;;2.87;1.87;;;9.80;99.90;9.70;101057.00;;;;4981497;28;87696;-64
2022/09/02 03:18:49;;;;;;;1.63;1.53;;;9.70;99.90;9.60;101059.00;;;;4992810;28;86966;-64
2022/09/02 03:21:16;;;;;;;3.67;1.40;;;9.70;99.90;9.60;101066.00;;;;4984280;28;89286;-64
2022/09/02 03:23:43;;;;;;;1.77;1.27;;;9.60;99.90;9.50;101062.00;;;;4981316;28;89015;-65
2022/09/02 03:26:16;;;;;;;1.40;1.23;;;9.60;99.90;9.50;101059.00;;;;4990453;28;88835;-64
2022/09/02 03:28:42;;;;;;;1.03;0.83;;;9.50;99.90;9.40;101061.00;;;;4979713;28;87401;-64
2022/09/02 03:31:18;;;;;;;1.60;1.27;;;9.50;99.90;9.30;101053.00;;;;4978498;28;88184;-64
2022/09/02 03:33:44;;;;;;;2.10;1.60;;;9.50;99.90;9.30;101055.00;;;;4961305;28;88399;-64
2022/09/02 03:36:27;;;;;;;1.00;0.90;;;9.40;99.90;9.30;101048.00;;;;4959697;28;87847;-64
2022/09/02 03:38:54;;;;;;;1.07;1.00;;;9.40;99.90;9.30;101053.00;;;;4948301;28;87928;-64
2022/09/02 03:41:20;;;;;;;1.50;1.40;;;9.40;99.90;9.30;101049.00;;;;4969393;28;88313;-64
2022/09/02 03:43:46;;;;;;;1.67;1.57;;;9.30;99.90;9.30;101060.00;;;;4960171;28;88008;-64
2022/09/02 03:46:12;;;;;;;1.43;1.23;;;9.40;99.90;9.30;101054.00;;;;4964752;28;109905;-64
2022/09/02 03:48:39;;;;;;;2.10;1.13;;;9.40;99.90;9.30;101047.00;;;;4972617;28;87589;-64
2022/09/02 03:51:05;;;;;;;2.00;1.33;;;9.40;99.90;9.30;101054.00;;;;4959488;28;89969;-64
2022/09/02 03:53:31;;;;;;;2.37;1.23;;;9.40;99.90;9.30;101046.00;;;;4964318;28;88067;-64
2022/09/02 03:56:03;;;;;;;2.13;1.77;;;9.40;99.90;9.40;101055.00;;;;4971923;28;87748;-64
2022/09/02 03:58:29;;;;;;;1.10;1.00;;;9.40;99.90;9.50;101058.00;;;;4955151;28;88085;-64
2022/09/02 04:00:54;;;;;;;1.33;1.23;;;9.50;99.90;9.50;101054.00;;;;4961388;28;117182;-65
2022/09/02 04:03:20;;;;;;;2.27;1.83;;;9.50;99.90;9.50;101064.00;;;;4971228;28;112399;-64
2022/09/02 04:05:49;;;;;;;0.93;0.77;;;9.60;99.90;9.60;101063.00;;;;4955519;28;87712;-64
2022/09/02 04:08:16;;;;;;;1.83;1.17;;;9.60;99.90;9.60;101060.00;;;;4963238;28;87220;-64
2022/09/02 04:10:42;;;;;;;1.27;1.17;;;9.60;99.90;9.70;101060.00;;;;4968118;28;102791;-65
2022/09/02 04:13:07;;;;;;;1.10;1.00;;;9.70;99.90;9.70;101053.00;;;;4956118;28;88626;-64
2022/09/02 04:15:33;;;;;;;0.83;0.80;;;9.70;99.90;9.80;101063.00;;;;4956340;28;110611;-64
2022/09/02 04:17:59;;;;;;;1.67;1.23;;;9.80;99.90;9.80;101050.00;;;;4971903;28;87852;-64
2022/09/02 04:20:24;;;;;;;1.43;1.10;;;9.80;99.90;9.90;101054.00;;;;4957258;28;118453;-64
2022/09/02 04:22:50;;;;;;;1.17;1.13;;;9.90;99.90;9.90;101047.00;;;;4964053;28;97927;-65
2022/09/02 04:25:16;;;;;;;1.00;0.90;;;9.90;99.90;10.00;101054.00;;;;4969520;28;110810;-64
2022/09/02 04:27:42;;;;;;;1.50;1.27;;;10.00;99.90;10.00;101050.00;;;;4960657;28;99976;-64
2022/09/02 04:30:09;;;;;;;1.20;0.93;;;10.00;99.90;10.10;101054.00;;;;4958118;28;117705;-65
2022/09/02 04:32:35;;;;;;;1.63;1.20;;;10.10;99.90;10.10;101048.00;;;;4951321;28;90057;-64
2022/09/02 04:35:01;;;;;;;1.53;1.43;;;10.10;99.90;10.20;101055.00;;;;4955608;28;87945;-64
2022/09/02 04:37:27;;;;;;;1.87;1.60;;;10.20;99.90;10.20;101064.00;;;;4959217;28;88961;-64
2022/09/02 04:39:53;;;;;;;2.13;1.43;;;10.20;99.90;10.30;101055.00;;;;4971943;28;89887;-64
2022/09/02 04:42:20;;;;;;;1.10;1.00;;;10.30;99.90;10.30;101050.00;;;;4962250;28;88720;-64
2022/09/02 04:44:45;;;;;;;1.50;1.10;;;10.30;99.90;10.40;101056.00;;;;4964458;28;88153;-64
2022/09/02 04:47:11;;;;;;;2.30;0.90;;;10.40;99.90;10.40;101051.00;;;;4957315;28;109950;-64
2022/09/02 04:49:37;;;;;;;1.33;0.83;;;10.40;99.90;10.50;101071.00;;;;4961630;28;118029;-64
2022/09/02 04:52:03;;;;;;;1.47;1.00;;;10.50;99.90;10.60;101070.00;;;;4963986;28;88206;-65
2022/09/02 04:54:29;;;;;;;1.47;1.37;;;10.50;99.90;10.70;101065.00;;;;4970221;28;107505;-64
2022/09/02 04:56:55;;;;;;;3.00;1.10;;;10.60;99.90;10.80;101072.00;;;;4963885;28;108568;-64
2022/09/02 04:59:21;;;;;;;1.53;1.20;;;10.70;99.90;10.90;101066.00;;;;4961204;28;88727;-64
2022/09/02 05:01:47;;;;;;;1.97;1.60;;;10.90;99.90;11.10;101074.00;;;;4966735;28;117383;-64
2022/09/02 05:04:12;;;;;;;3.13;1.17;;;11.00;99.90;11.20;101067.00;;;;4961499;28;88728;-64
2022/09/02 05:06:38;;;;;;;1.87;1.53;;;11.10;99.90;11.30;101061.00;;;;4961703;28;108479;-64
2022/09/02 05:09:07;;;;;;;2.93;1.60;;;11.20;99.90;11.40;101075.00;;;;4967809;28;89226;-64
2022/09/02 05:11:34;;;;;;;1.13;0.90;;;11.40;99.90;11.60;101070.00;;;;4960572;28;88546;-64
2022/09/02 05:14:03;;;;;;;2.00;1.40;;;11.50;99.90;11.70;101076.00;;;;4962764;28;105907;-65
2022/09/02 05:16:35;;;;;;;1.63;1.10;;;11.70;99.90;11.80;101069.00;;;;4946944;28;88030;-64
2022/09/02 05:19:04;;;;;;;1.03;1.00;;;11.70;99.90;11.90;101081.00;;;;4952620;28;87798;-64
2022/09/02 05:21:30;;;;;;;5.43;1.17;;;11.90;99.90;12.00;101077.00;;;;4956821;28;87330;-64
2022/09/02 05:23:57;;;;;;;3.47;1.47;;;11.90;99.90;12.00;101076.00;;;;4966331;28;87952;-64
2022/09/02 05:26:23;;;;;;;1.10;1.00;;;12.00;99.90;12.00;101070.00;;;;4964200;28;88110;-64
2022/09/02 05:28:50;;;;;;;1.30;1.20;;;12.00;99.90;12.00;101071.00;;;;4961043;28;88924;-63
2022/09/02 05:31:18;;;;;;;5.20;1.33;;;12.00;99.90;12.00;101071.00;;;;4971898;28;117545;-63
2022/09/02 05:33:44;;;;;;;2.30;1.50;;;12.00;99.90;12.00;101071.00;;;;4963409;28;87545;-63
2022/09/02 05:36:20;;;;;;;2.53;1.20;;;12.00;99.90;12.10;101072.00;;;;4956187;28;109106;-64
2022/09/02 05:38:47;;;;;;;1.47;1.20;;;12.10;99.90;12.20;101077.00;;;;4971700;28;87918;-63
2022/09/02 05:41:18;;;;;;;0.53;0.53;;;12.20;99.90;12.30;101061.00;;;;4962733;28;88646;-63
2022/09/02 05:43:44;;;;;;;1.87;1.37;;;12.20;99.90;12.40;101076.00;;;;4963759;28;87892;-63
2022/09/02 05:46:16;;;;;;;1.40;0.90;;;12.30;99.90;12.60;101070.00;;;;4954085;28;87417;-62
2022/09/02 05:51:29;;;;;;;1.17;1.07;;;12.70;99.90;13.10;101073.00;;;;4963494;28;88096;-64
2022/09/02 05:53:57;;;;;;;3.33;0.80;;;12.90;99.90;13.40;101075.00;;;;4991021;28;88634;-63
2022/09/02 05:56:24;;;;;;;2.87;1.30;;;13.20;99.90;13.60;101067.00;;;;4979119;28;101942;-65
2022/09/02 05:58:50;;;;;;;1.50;1.37;;;13.40;99.90;13.80;101073.00;;;;4955444;28;99087;-64
2022/09/02 06:01:18;;;;;;;1.00;1.00;;;13.70;99.90;14.10;101072.00;;;;4969385;28;88153;-64
2022/09/02 06:03:44;;;;;;;2.97;1.23;;;13.90;99.90;14.40;101065.00;;;;4962342;28;87676;-64
2022/09/02 06:06:10;;;;;;;0.90;0.90;;;14.20;99.90;14.60;101076.00;;;;4962422;28;87718;-64
2022/09/02 06:08:36;;;;;;;1.83;1.10;;;14.40;99.90;14.80;101074.00;;;;4956625;28;109290;-63
2022/09/02 06:11:03;;;;;;;1.47;1.30;;;14.70;99.90;15.00;101077.00;;;;4955476;28;117346;-64
2022/09/02 06:13:32;;;;;;;1.60;1.03;;;14.80;99.90;15.20;101065.00;;;;4965770;28;91635;-64
2022/09/02 06:15:58;;;;;;;1.63;1.10;;;15.00;99.90;15.40;101072.00;;;;4966828;28;100234;-63
2022/09/02 06:18:24;;;;;;;1.53;0.97;;;15.20;99.90;15.50;101080.00;;;;4958495;28;118106;-63
2022/09/02 06:20:50;;;;;;;1.33;1.23;;;15.40;99.90;15.70;101081.00;;;;4967667;28;110945;-63
2022/09/02 06:23:16;;;;;;;0.77;0.75;;;15.50;99.90;15.90;101085.00;;;;4973297;28;96450;-64
2022/09/02 06:25:44;;;;;;;1.40;0.80;;;15.70;99.90;16.00;101082.00;;;;4960440;28;108909;-63
2022/09/02 06:28:11;;;;;;;1.77;0.80;;;15.80;99.90;16.20;101090.00;;;;4962997;28;88801;-63
2022/09/02 06:30:39;;;;;;;1.33;0.90;;;16.00;99.90;16.30;101086.00;;;;4979120;28;88689;-63
2022/09/02 06:33:06;;;;;;;1.95;1.17;;;16.10;99.90;16.50;101084.00;;;;4982190;28;87706;-63
2022/09/02 06:35:38;;;;;;;1.65;1.15;;;16.30;99.90;16.70;101082.00;;;;4993702;28;87241;-63
2022/09/02 06:38:04;;;;;;;0.98;0.88;;;16.50;99.90;17.00;101080.00;;;;4992626;28;89204;-64
2022/09/02 06:40:29;;;;;;;1.10;1.00;;;16.70;99.90;17.30;101087.00;;;;4986454;28;115886;-64
2022/09/02 06:42:56;;;;;;;1.23;1.13;;;17.00;99.90;17.50;101085.00;;;;4986752;28;109433;-64
2022/09/02 06:45:25;;;;;;;1.10;0.85;;;17.30;99.90;17.80;101091.00;;;;4986782;28;88023;-66
2022/09/02 06:47:52;;;;;;;1.05;0.85;;;17.50;99.90;18.00;101101.00;;;;4982314;28;88005;-65
2022/09/02 06:50:19;;;;;;;1.75;1.13;;;17.80;99.90;18.30;101085.00;;;;4983593;28;88274;-65
2022/09/02 06:52:44;;;;;;;0.95;0.80;;;18.10;99.90;18.60;101093.00;;;;4982933;28;99608;-65
2022/09/02 06:55:11;;;;;;;2.30;0.75;;;18.30;99.90;18.90;101091.00;;;;4981595;28;109073;-65
2022/09/02 06:57:37;;;;;;;1.05;0.77;;;18.60;99.90;19.10;101094.00;;;;4983113;28;87882;-66
2022/09/02 07:00:09;;;;;;;1.00;0.90;;;18.90;99.90;19.40;101084.00;;;;4990250;28;87468;-65
2022/09/02 07:02:36;;;;;;;2.30;0.90;;;19.10;99.90;19.60;101096.00;;;;4979060;28;97363;-64
2022/09/02 07:05:08;;;;;;;3.83;1.08;;;19.30;99.80;19.70;101092.00;;;;4986084;28;87716;-65
2022/09/02 07:07:36;;;;;;;2.53;1.20;;;19.50;99.70;19.80;101086.00;;;;4989003;28;89038;-64
2022/09/02 07:10:05;;;;;;;2.00;0.68;;;19.60;98.40;19.90;101085.00;;;;4982085;28;88637;-65
2022/09/02 07:12:34;;;;;;;1.08;0.73;;;20.60;98.60;20.20;101089.00;;;;4980774;28;104491;-64
2022/09/02 07:15:00;;;;;;;0.60;0.40;;;20.10;98.10;20.50;101090.00;;;;4989231;28;87744;-65
2022/09/02 07:17:26;;;;;;;1.05;0.60;;;20.20;97.80;20.80;101090.00;;;;4979576;28;116538;-65
2022/09/02 07:19:54;;;;;;;0.82;0.82;;;20.50;96.90;21.10;101094.00;;;;4983630;28;88301;-64
2022/09/02 07:22:20;;;;;;;0.82;0.50;;;20.80;96.30;21.40;101086.00;;;;4987901;28;87655;-64
2022/09/02 07:24:46;;;;;;;0.57;0.57;;;21.10;95.00;21.60;101093.00;;;;4981244;28;108149;-65
2022/09/02 07:27:12;;;;;;;0.77;0.63;;;21.30;94.00;21.90;101091.00;;;;4979917;28;118089;-65
2022/09/02 07:29:38;;;;;;;0.65;0.60;;;21.60;93.40;22.10;101101.00;;;;4977083;28;88281;-65
2022/09/02 07:32:04;;;;;;;1.10;0.60;;;21.90;92.60;22.40;101103.00;;;;4967544;28;88874;-65
2022/09/02 07:34:30;;;;;;;2.20;0.90;;;22.10;90.00;22.50;101105.00;;;;4983947;28;101901;-65
2022/09/02 07:36:56;;;;;;;0.68;0.45;;;22.30;88.80;22.70;101105.00;;;;4990356;28;117748;-65
2022/09/02 07:39:21;;;;;;;0.55;0.55;;;22.50;88.20;23.00;101107.00;;;;4981883;28;88260;-66
2022/09/02 07:41:50;;;;;;;3.40;0.60;;;22.70;86.20;23.20;101111.00;;;;4983182;28;97345;-65
2022/09/02 07:44:18;;;;;;;0.52;0.50;;;22.90;84.60;23.40;101107.00;;;;4988715;28;87787;-65
2022/09/02 07:46:44;;;;;;;0.45;0.45;;;23.20;82.30;23.60;101106.00;;;;4982499;28;103643;-65
2022/09/02 07:49:12;;;;;;;1.45;0.68;;;23.40;79.10;23.70;101106.00;;;;4986936;28;88774;-66
2022/09/02 07:51:42;;;;;;;0.28;0.28;;;23.50;77.50;23.80;101108.00;;;;4995064;28;87788;-64
2022/09/02 07:54:11;;;;;;;0.90;0.55;;;23.60;75.50;23.80;101103.00;;;;4985346;28;87923;-65
2022/09/02 07:56:37;;;;;;;1.63;0.70;;;23.70;71.70;23.80;101106.00;;;;4984333;28;89799;-66
2022/09/02 07:59:03;;;;;;;0.60;0.60;;;23.70;71.40;24.00;101104.00;;;;4989508;28;117724;-65
2022/09/02 08:01:30;;;;;;;1.15;0.63;;;23.80;71.00;24.10;101104.00;;;;4981398;28;87796;-66
2022/09/02 08:03:56;;;;;;;0.98;0.63;;;24.00;66.00;24.10;101117.00;;;;4981940;28;108885;-66
2022/09/02 08:06:25;;;;;;;1.83;0.50;;;23.90;62.20;24.00;101104.00;;;;4986031;28;89405;-66
2022/09/02 08:08:52;;;;;;;0.60;0.43;;;23.80;59.60;23.70;101099.00;;;;4977687;28;88568;-65
2022/09/02 08:11:19;;;;;;;0.80;0.57;;;23.70;61.70;23.70;101112.00;;;;4974074;28;87729;-66
2022/09/02 08:13:44;;;;;;;0.55;0.45;;;23.60;60.60;23.70;101116.00;;;;4984365;27;86917;-66
2022/09/02 08:16:10;;;;;;;0.50;0.50;;;23.60;62.00;23.80;101113.00;;;;4987570;28;87773;-64
2022/09/02 08:18:37;;;;;;;0.40;0.40;;;23.60;62.10;24.00;101107.00;;;;4986595;28;117042;-65
2022/09/02 08:21:03;;;;;;;0.30;0.30;;;23.70;61.20;24.10;101103.00;;;;4992406;28;110909;-65
2022/09/02 08:23:29;;;;;;;1.38;0.80;;;23.90;60.30;24.40;101109.00;;;;4987203;28;99034;-65
2022/09/02 08:25:59;;;;;;;1.15;0.60;;;24.10;57.50;24.30;101106.00;;;;4988254;28;87870;-66
2022/09/02 08:28:26;;;;;;;0.45;0.45;;;24.10;58.00;24.30;101107.00;;;;4991297;28;88573;-65
2022/09/02 08:30:53;;;;;;;0.40;0.40;;;24.10;58.80;24.60;101105.00;;;;4984560;28;87742;-65
2022/09/02 08:33:19;;;;;;;1.85;0.73;;;24.30;57.30;24.60;101107.00;;;;4983538;28;87699;-65
2022/09/02 08:35:45;;;;;;;0.20;0.20;;;24.30;56.80;24.60;101100.00;;;;4991513;28;109202;-66
2022/09/02 08:38:10;;;;;;;0.55;0.47;;;24.40;55.20;24.60;101112.00;;;;4987739;28;96937;-65
2022/09/02 08:40:40;;;;;;;0.90;0.32;;;24.40;54.80;24.60;101111.00;;;;4982065;28;111200;-65
2022/09/02 08:43:38;;;;;;;0.35;0.35;;;24.40;53.70;24.50;101109.00;;;;4969417;28;87807;-64
2022/09/02 08:46:10;;;;;;;0.90;0.77;;;24.30;55.20;24.70;101108.00;;;;4964991;28;89277;-65
2022/09/02 08:48:48;;;;;;;0.85;0.50;;;24.40;56.00;25.00;101106.00;;;;4986574;28;88666;-65
2022/09/02 08:51:44;;;;;;;0.95;0.35;;;24.60;55.40;25.20;101110.00;;;;4986250;28;87779;-65
2022/09/02 08:54:21;;;;;;;0.65;0.50;;;24.90;54.00;25.40;101093.00;;;;4985096;28;87669;-66
2022/09/02 08:56:50;;;;;;;0.30;0.30;;;25.00;52.80;25.40;101103.00;;;;4987284;28;87933;-65
2022/09/02 08:59:19;;;;;;;0.30;0.28;;;25.10;51.10;25.40;101092.00;;;;4979074;28;88894;-66
2022/09/02 09:01:55;;;;;;;0.10;0.10;;;25.20;50.30;25.40;101100.00;;;;4956726;28;88114;-65
2022/09/02 09:04:42;;;;;;;0.60;0.40;;;25.10;49.80;25.30;101091.00;;;;4971985;28;86806;-65
2022/09/02 09:07:31;;;;;;;0.50;0.40;;;25.10;48.50;25.10;101086.00;;;;4991828;28;88408;-66
2022/09/02 09:10:14;;;;;;;0.20;0.20;;;24.90;49.40;25.10;101087.00;;;;4984056;28;88035;-68
2022/09/02 09:13:14;;;;;;;0.52;0.30;;;24.80;50.30;25.30;101094.00;;;;4975243;28;88885;-69
2022/09/02 09:15:58;;;;;;;0.10;0.10;;;25.00;50.40;25.60;101081.00;;;;4962107;28;101029;-68
2022/09/02 09:18:42;;;;;;;0.75;0.52;;;25.10;49.80;25.70;101076.00;;;;4968006;28;102627;-68
2022/09/02 09:21:09;;;;;;;2.00;0.50;;;25.20;48.70;25.80;101074.00;;;;4975160;28;105000;-69
2022/09/02 09:23:38;;;;;;;0.70;0.50;;;25.40;47.00;25.80;101073.00;;;;4964225;28;88025;-68
2022/09/02 09:26:17;;;;;;;0.20;0.20;;;25.40;47.10;25.80;101074.00;;;;4988464;27;101556;-68
2022/09/02 09:28:47;;;;;;;0.52;0.30;;;25.40;46.70;25.50;101075.00;;;;4991295;28;97539;-68
2022/09/02 09:31:20;;;;;;;4.32;0.45;;;25.20;45.20;25.40;101069.00;;;;4984234;28;102769;-68
2022/09/02 09:34:04;;;;;;;1.92;0.40;;;25.00;45.60;25.20;101070.00;;;;4978876;28;97479;-68
2022/09/02 09:36:44;;;;;;;0.30;0.20;;;24.90;46.10;25.20;101076.00;;;;4957659;28;87988;-67
2022/09/02 09:39:18;;;;;;;1.75;0.30;;;24.80;46.00;25.20;101070.00;;;;4982049;28;88977;-68
2022/09/02 09:41:47;;;;;;;0.17;0.17;;;24.80;46.40;25.10;101066.00;;;;4983442;28;90631;-68
2022/09/02 09:44:45;;;;;;;0.10;0.10;;;24.70;46.00;25.00;101054.00;;;;4992836;28;87799;-67
2022/09/02 09:47:18;;;;;;;2.95;0.30;;;24.60;46.60;25.10;101065.00;;;;4964096;28;88094;-68
2022/09/02 09:49:46;;;;;;;0.10;0.10;;;24.60;45.30;25.20;101072.00;;;;4986014;28;89075;-68
2022/09/02 09:52:30;;;;;;;0.32;0.32;;;24.70;45.80;24.70;101070.00;;;;4986308;28;87826;-67
2022/09/02 09:55:19;;;;;;;0.60;0.43;;;24.50;45.80;24.30;101067.00;;;;4988256;28;110290;-68
2022/09/02 09:57:47;;;;;;;0.32;0.32;;;24.10;46.40;24.50;101068.00;;;;4993541;28;87078;-67
2022/09/02 10:00:30;;;;;;;0.38;0.15;;;24.00;47.10;24.90;101057.00;;;;4961183;28;87779;-67
2022/09/02 10:03:00;;;;;;;0.40;0.28;;;24.30;46.90;25.00;101053.00;;;;4966949;28;87992;-67
2022/09/02 10:05:25;;;;;;;0.40;0.40;;;24.40;45.10;25.20;101055.00;;;;4991263;28;100135;-68
2022/09/02 10:08:03;;;;;;;0.17;0.17;;;24.60;45.90;25.50;101055.00;;;;4982057;28;108288;-68
2022/09/02 10:10:31;;;;;;;1.35;0.35;;;24.80;45.70;25.60;101058.00;;;;4980906;28;87784;-68
2022/09/02 10:13:17;;;;;;;2.17;0.40;;;25.00;45.10;25.90;101055.00;;;;4999436;28;88550;-67
2022/09/02 10:16:06;;;;;;;0.30;0.30;;;25.20;45.60;26.40;101064.00;;;;4961139;28;88269;-68
2022/09/02 10:18:52;;;;;;;0.73;0.57;;;25.60;45.50;26.40;101058.00;;;;4959291;28;87960;-66
2022/09/02 10:21:54;;;;;;;1.15;0.20;;;25.80;44.80;26.50;101054.00;;;;4986581;28;101711;-69
2022/09/02 10:24:50;;;;;;;0.45;0.45;;;25.80;46.00;27.00;101047.00;;;;4969590;28;108729;-69
2022/09/02 10:27:45;;;;;;;1.00;0.38;;;26.20;45.70;27.50;101041.00;;;;4987358;28;101560;-67
2022/09/02 10:30:22;;;;;;;0.65;0.20;;;26.60;45.60;27.40;101044.00;;;;4963851;28;88739;-68
2022/09/02 10:33:19;;;;;;;1.65;0.55;;;26.90;43.50;26.90;101053.00;;;;4975026;28;88696;-67
2022/09/02 10:36:35;;;;;;;0.65;0.30;;;26.60;43.50;26.40;101052.00;;;;4972255;28;87941;-68
2022/09/02 10:39:31;;;;;;;0.20;0.20;;;26.20;43.90;25.90;101049.00;;;;4973271;28;87948;-67
2022/09/02 10:42:19;;;;;;;0.47;0.30;;;25.70;43.90;25.60;101045.00;;;;4991907;28;87830;-67
2022/09/02 10:45:06;;;;;;;0.43;0.13;;;25.30;44.60;25.60;101038.00;;;;4979384;28;111563;-68
2022/09/02 10:47:39;;;;;;;0.55;0.20;;;25.20;45.30;25.40;101039.00;;;;4965559;28;104970;-67
2022/09/02 10:50:30;;;;;;;0.50;0.47;;;25.10;44.60;25.20;101047.00;;;;4975189;28;87780;-67
2022/09/02 10:53:25;;;;;;;0.30;0.10;;;24.90;44.40;24.90;101049.00;;;;4959291;28;101138;-68
2022/09/02 10:56:17;;;;;;;1.30;0.35;;;24.60;44.40;24.70;101042.00;;;;4989209;28;88022;-68
2022/09/02 10:58:56;;;;;;;1.27;0.32;;;24.40;45.10;24.50;101044.00;;;;4965638;28;89093;-68
2022/09/02 11:01:36;;;;;;;0.30;0.30;;;24.30;44.90;24.20;101041.00;;;;4940680;28;88864;-70
2022/09/02 11:04:33;;;;;;;0.60;0.50;;;24.00;45.70;24.00;101037.00;;;;4988150;28;87978;-69